sensor_id;sensor_type;location;lat;lon;timestamp;P1;durP1;ratioP1;P2;durP2;ratioP2
59424;SDS011;45231;44.826;20.312;2023-03-03T00:00:46;42.63;;;25.70;;
59424;SDS011;45231;44.826;20.312;2023-03-03T00:03:14;42.72;;;25.17;;
59424;SDS011;45231;44.826;20.312;2023-03-03T00:05:41;39.30;;;24.55;;
59424;SDS011;45231;44.826;20.312;2023-03-03T00:08:10;40.00;;;23.95;;
59424;SDS011;45231;44.826;20.312;2023-03-03T00:10:37;39.20;;;24.52;;
59424;SDS011;45231;44.826;20.312;2023-03-03T00:13:20;38.97;;;25.20;;
59424;SDS011;45231;44.826;20.312;2023-03-03T00:15:47;41.58;;;23.90;;
59424;SDS011;45231;44.826;20.312;2023-03-03T00:20:55;39.38;;;24.40;;
59424;SDS011;45231;44.826;20.312;2023-03-03T00:26:01;39.25;;;24.67;;
59424;SDS011;45231;44.826;20.312;2023-03-03T00:28:29;37.92;;;24.33;;
59424;SDS011;45231;44.826;20.312;2023-03-03T00:30:59;41.80;;;27.08;;
59424;SDS011;45231;44.826;20.312;2023-03-03T00:35:58;42.03;;;25.47;;
59424;SDS011;45231;44.826;20.312;2023-03-03T00:38:27;46.08;;;26.92;;
59424;SDS011;45231;44.826;20.312;2023-03-03T00:40:54;43.70;;;26.07;;
59424;SDS011;45231;44.826;20.312;2023-03-03T00:43:21;44.20;;;26.90;;
59424;SDS011;45231;44.826;20.312;2023-03-03T00:45:52;43.90;;;26.38;;
59424;SDS011;45231;44.826;20.312;2023-03-03T00:50:47;41.97;;;26.63;;
59424;SDS011;45231;44.826;20.312;2023-03-03T00:53:15;43.28;;;26.25;;
59424;SDS011;45231;44.826;20.312;2023-03-03T00:55:51;41.78;;;24.05;;
59424;SDS011;45231;44.826;20.312;2023-03-03T00:58:18;43.33;;;25.88;;
59424;SDS011;45231;44.826;20.312;2023-03-03T01:00:46;44.22;;;26.15;;
59424;SDS011;45231;44.826;20.312;2023-03-03T01:03:16;43.78;;;26.13;;
59424;SDS011;45231;44.826;20.312;2023-03-03T01:05:44;42.67;;;25.08;;
59424;SDS011;45231;44.826;20.312;2023-03-03T01:08:10;39.85;;;25.30;;
59424;SDS011;45231;44.826;20.312;2023-03-03T01:10:38;42.03;;;25.67;;
59424;SDS011;45231;44.826;20.312;2023-03-03T01:13:05;44.45;;;25.63;;
59424;SDS011;45231;44.826;20.312;2023-03-03T01:15:32;37.17;;;21.80;;
59424;SDS011;45231;44.826;20.312;2023-03-03T01:17:58;39.17;;;25.23;;
59424;SDS011;45231;44.826;20.312;2023-03-03T01:20:24;44.83;;;25.45;;
59424;SDS011;45231;44.826;20.312;2023-03-03T01:22:53;47.60;;;26.90;;
59424;SDS011;45231;44.826;20.312;2023-03-03T01:25:20;44.13;;;25.38;;
59424;SDS011;45231;44.826;20.312;2023-03-03T01:27:46;44.63;;;26.42;;
59424;SDS011;45231;44.826;20.312;2023-03-03T01:30:15;44.70;;;25.80;;
59424;SDS011;45231;44.826;20.312;2023-03-03T01:35:32;43.72;;;25.15;;
59424;SDS011;45231;44.826;20.312;2023-03-03T01:38:02;43.35;;;26.27;;
59424;SDS011;45231;44.826;20.312;2023-03-03T01:40:29;41.33;;;25.27;;
59424;SDS011;45231;44.826;20.312;2023-03-03T01:43:04;45.85;;;27.20;;
59424;SDS011;45231;44.826;20.312;2023-03-03T01:48:30;47.08;;;27.15;;
59424;SDS011;45231;44.826;20.312;2023-03-03T01:51:01;45.95;;;26.83;;
59424;SDS011;45231;44.826;20.312;2023-03-03T01:56:30;44.50;;;27.15;;
59424;SDS011;45231;44.826;20.312;2023-03-03T02:01:46;46.55;;;26.08;;
59424;SDS011;45231;44.826;20.312;2023-03-03T02:04:19;41.97;;;23.95;;
59424;SDS011;45231;44.826;20.312;2023-03-03T02:06:48;40.47;;;25.52;;
59424;SDS011;45231;44.826;20.312;2023-03-03T02:11:43;42.97;;;26.33;;
59424;SDS011;45231;44.826;20.312;2023-03-03T02:14:12;40.40;;;24.85;;
59424;SDS011;45231;44.826;20.312;2023-03-03T02:16:39;46.13;;;26.90;;
59424;SDS011;45231;44.826;20.312;2023-03-03T02:19:07;43.72;;;26.27;;
59424;SDS011;45231;44.826;20.312;2023-03-03T02:21:44;42.15;;;26.10;;
59424;SDS011;45231;44.826;20.312;2023-03-03T02:24:26;39.83;;;25.60;;
59424;SDS011;45231;44.826;20.312;2023-03-03T02:26:55;42.72;;;25.88;;
59424;SDS011;45231;44.826;20.312;2023-03-03T02:29:21;42.65;;;25.23;;
59424;SDS011;45231;44.826;20.312;2023-03-03T02:31:51;42.80;;;26.13;;
59424;SDS011;45231;44.826;20.312;2023-03-03T02:34:20;43.13;;;25.83;;
59424;SDS011;45231;44.826;20.312;2023-03-03T02:36:46;44.07;;;26.77;;
59424;SDS011;45231;44.826;20.312;2023-03-03T02:39:20;38.22;;;24.33;;
59424;SDS011;45231;44.826;20.312;2023-03-03T02:44:20;46.88;;;27.35;;
59424;SDS011;45231;44.826;20.312;2023-03-03T02:46:47;44.22;;;26.33;;
59424;SDS011;45231;44.826;20.312;2023-03-03T02:49:14;48.13;;;26.17;;
59424;SDS011;45231;44.826;20.312;2023-03-03T02:51:41;42.88;;;25.55;;
59424;SDS011;45231;44.826;20.312;2023-03-03T02:54:12;39.45;;;25.40;;
59424;SDS011;45231;44.826;20.312;2023-03-03T02:56:38;40.95;;;25.67;;
59424;SDS011;45231;44.826;20.312;2023-03-03T02:59:05;41.92;;;26.00;;
59424;SDS011;45231;44.826;20.312;2023-03-03T03:01:31;52.83;;;34.75;;
59424;SDS011;45231;44.826;20.312;2023-03-03T03:04:03;67.72;;;45.83;;
59424;SDS011;45231;44.826;20.312;2023-03-03T03:06:38;71.85;;;46.78;;
59424;SDS011;45231;44.826;20.312;2023-03-03T03:09:05;71.82;;;50.08;;
59424;SDS011;45231;44.826;20.312;2023-03-03T03:14:07;78.13;;;52.95;;
59424;SDS011;45231;44.826;20.312;2023-03-03T03:16:33;82.97;;;53.83;;
59424;SDS011;45231;44.826;20.312;2023-03-03T03:19:01;75.13;;;50.38;;
59424;SDS011;45231;44.826;20.312;2023-03-03T03:21:31;67.72;;;44.78;;
59424;SDS011;45231;44.826;20.312;2023-03-03T03:24:00;52.92;;;34.90;;
59424;SDS011;45231;44.826;20.312;2023-03-03T03:26:38;44.63;;;27.60;;
59424;SDS011;45231;44.826;20.312;2023-03-03T03:29:09;45.00;;;27.70;;
59424;SDS011;45231;44.826;20.312;2023-03-03T03:31:35;44.95;;;26.77;;
59424;SDS011;45231;44.826;20.312;2023-03-03T03:34:02;42.78;;;25.75;;
59424;SDS011;45231;44.826;20.312;2023-03-03T03:36:29;41.40;;;25.67;;
59424;SDS011;45231;44.826;20.312;2023-03-03T03:38:55;39.97;;;25.00;;
59424;SDS011;45231;44.826;20.312;2023-03-03T03:41:21;40.73;;;24.53;;
59424;SDS011;45231;44.826;20.312;2023-03-03T03:43:56;37.38;;;23.75;;
59424;SDS011;45231;44.826;20.312;2023-03-03T03:46:23;38.72;;;24.20;;
59424;SDS011;45231;44.826;20.312;2023-03-03T03:48:49;42.37;;;24.37;;
59424;SDS011;45231;44.826;20.312;2023-03-03T03:51:15;36.15;;;22.65;;
59424;SDS011;45231;44.826;20.312;2023-03-03T03:53:47;39.47;;;24.30;;
59424;SDS011;45231;44.826;20.312;2023-03-03T03:56:13;40.53;;;25.55;;
59424;SDS011;45231;44.826;20.312;2023-03-03T03:58:40;38.75;;;24.67;;
59424;SDS011;45231;44.826;20.312;2023-03-03T04:01:06;37.83;;;22.88;;
59424;SDS011;45231;44.826;20.312;2023-03-03T04:03:46;36.03;;;22.98;;
59424;SDS011;45231;44.826;20.312;2023-03-03T04:06:13;36.85;;;22.63;;
59424;SDS011;45231;44.826;20.312;2023-03-03T04:08:39;38.03;;;23.33;;
59424;SDS011;45231;44.826;20.312;2023-03-03T04:11:09;37.15;;;24.33;;
59424;SDS011;45231;44.826;20.312;2023-03-03T04:13:35;37.08;;;23.20;;
59424;SDS011;45231;44.826;20.312;2023-03-03T04:16:03;38.40;;;24.17;;
59424;SDS011;45231;44.826;20.312;2023-03-03T04:18:35;38.13;;;22.80;;
59424;SDS011;45231;44.826;20.312;2023-03-03T04:21:01;36.43;;;22.30;;
59424;SDS011;45231;44.826;20.312;2023-03-03T04:23:28;42.67;;;25.10;;
59424;SDS011;45231;44.826;20.312;2023-03-03T04:26:03;39.37;;;22.97;;
59424;SDS011;45231;44.826;20.312;2023-03-03T04:28:34;37.67;;;23.17;;
59424;SDS011;45231;44.826;20.312;2023-03-03T04:31:04;42.65;;;25.08;;
59424;SDS011;45231;44.826;20.312;2023-03-03T04:33:30;39.53;;;24.20;;
59424;SDS011;45231;44.826;20.312;2023-03-03T04:35:56;39.63;;;24.33;;
59424;SDS011;45231;44.826;20.312;2023-03-03T04:38:23;43.45;;;24.10;;
59424;SDS011;45231;44.826;20.312;2023-03-03T04:40:51;39.58;;;24.48;;
59424;SDS011;45231;44.826;20.312;2023-03-03T04:43:17;39.20;;;23.90;;
59424;SDS011;45231;44.826;20.312;2023-03-03T04:45:44;42.47;;;24.02;;
59424;SDS011;45231;44.826;20.312;2023-03-03T04:48:20;40.47;;;25.87;;
59424;SDS011;45231;44.826;20.312;2023-03-03T04:53:55;42.45;;;24.50;;
59424;SDS011;45231;44.826;20.312;2023-03-03T04:56:21;39.40;;;23.65;;
59424;SDS011;45231;44.826;20.312;2023-03-03T04:58:53;41.05;;;25.15;;
59424;SDS011;45231;44.826;20.312;2023-03-03T05:01:19;39.78;;;23.88;;
59424;SDS011;45231;44.826;20.312;2023-03-03T05:03:45;42.50;;;24.77;;
59424;SDS011;45231;44.826;20.312;2023-03-03T05:06:11;41.65;;;25.40;;
59424;SDS011;45231;44.826;20.312;2023-03-03T05:08:38;50.60;;;29.40;;
59424;SDS011;45231;44.826;20.312;2023-03-03T05:11:04;50.03;;;29.37;;
59424;SDS011;45231;44.826;20.312;2023-03-03T05:13:30;54.45;;;30.38;;
59424;SDS011;45231;44.826;20.312;2023-03-03T05:16:00;51.40;;;28.85;;
59424;SDS011;45231;44.826;20.312;2023-03-03T05:18:29;51.97;;;29.30;;
59424;SDS011;45231;44.826;20.312;2023-03-03T05:20:57;47.10;;;26.70;;
59424;SDS011;45231;44.826;20.312;2023-03-03T05:23:23;44.38;;;27.45;;
59424;SDS011;45231;44.826;20.312;2023-03-03T05:25:52;45.42;;;27.50;;
59424;SDS011;45231;44.826;20.312;2023-03-03T05:28:18;38.80;;;24.50;;
59424;SDS011;45231;44.826;20.312;2023-03-03T05:30:45;43.50;;;25.27;;
59424;SDS011;45231;44.826;20.312;2023-03-03T05:33:15;39.45;;;25.25;;
59424;SDS011;45231;44.826;20.312;2023-03-03T05:35:44;43.58;;;26.55;;
59424;SDS011;45231;44.826;20.312;2023-03-03T05:38:10;42.42;;;25.75;;
59424;SDS011;45231;44.826;20.312;2023-03-03T05:40:39;41.08;;;26.33;;
59424;SDS011;45231;44.826;20.312;2023-03-03T05:43:07;42.55;;;26.63;;
59424;SDS011;45231;44.826;20.312;2023-03-03T05:45:34;43.55;;;26.85;;
59424;SDS011;45231;44.826;20.312;2023-03-03T05:48:00;44.00;;;28.85;;
59424;SDS011;45231;44.826;20.312;2023-03-03T05:52:56;58.60;;;34.63;;
59424;SDS011;45231;44.826;20.312;2023-03-03T05:55:23;63.13;;;39.85;;
59424;SDS011;45231;44.826;20.312;2023-03-03T05:57:49;67.50;;;42.53;;
59424;SDS011;45231;44.826;20.312;2023-03-03T06:00:18;74.73;;;45.23;;
59424;SDS011;45231;44.826;20.312;2023-03-03T06:02:54;73.68;;;47.08;;
59424;SDS011;45231;44.826;20.312;2023-03-03T06:05:29;70.75;;;46.13;;
59424;SDS011;45231;44.826;20.312;2023-03-03T06:08:48;71.18;;;45.10;;
59424;SDS011;45231;44.826;20.312;2023-03-03T06:11:11;67.70;;;40.83;;
59424;SDS011;45231;44.826;20.312;2023-03-03T06:13:59;66.10;;;41.35;;
59424;SDS011;45231;44.826;20.312;2023-03-03T06:16:35;59.55;;;39.83;;
59424;SDS011;45231;44.826;20.312;2023-03-03T06:19:15;67.28;;;43.10;;
59424;SDS011;45231;44.826;20.312;2023-03-03T06:21:42;65.63;;;43.53;;
59424;SDS011;45231;44.826;20.312;2023-03-03T06:24:14;63.00;;;41.15;;
59424;SDS011;45231;44.826;20.312;2023-03-03T06:26:44;61.90;;;42.85;;
59424;SDS011;45231;44.826;20.312;2023-03-03T06:29:10;60.42;;;39.83;;
59424;SDS011;45231;44.826;20.312;2023-03-03T06:31:39;59.80;;;39.67;;
59424;SDS011;45231;44.826;20.312;2023-03-03T06:34:09;57.40;;;35.92;;
59424;SDS011;45231;44.826;20.312;2023-03-03T06:36:42;58.30;;;34.17;;
59424;SDS011;45231;44.826;20.312;2023-03-03T06:39:08;49.88;;;32.88;;
59424;SDS011;45231;44.826;20.312;2023-03-03T06:41:34;48.70;;;30.97;;
59424;SDS011;45231;44.826;20.312;2023-03-03T06:44:04;49.45;;;30.10;;
59424;SDS011;45231;44.826;20.312;2023-03-03T06:46:33;45.65;;;29.17;;
59424;SDS011;45231;44.826;20.312;2023-03-03T06:48:59;43.27;;;29.37;;
59424;SDS011;45231;44.826;20.312;2023-03-03T06:51:29;46.90;;;29.13;;
59424;SDS011;45231;44.826;20.312;2023-03-03T06:53:57;45.33;;;28.42;;
59424;SDS011;45231;44.826;20.312;2023-03-03T06:56:24;47.90;;;28.30;;
59424;SDS011;45231;44.826;20.312;2023-03-03T06:58:57;42.67;;;25.95;;
59424;SDS011;45231;44.826;20.312;2023-03-03T07:01:27;39.85;;;26.33;;
59424;SDS011;45231;44.826;20.312;2023-03-03T07:04:03;39.30;;;25.17;;
59424;SDS011;45231;44.826;20.312;2023-03-03T07:06:30;38.45;;;24.35;;
59424;SDS011;45231;44.826;20.312;2023-03-03T07:08:57;40.67;;;24.15;;
59424;SDS011;45231;44.826;20.312;2023-03-03T07:11:23;39.88;;;25.25;;
59424;SDS011;45231;44.826;20.312;2023-03-03T07:13:50;38.97;;;25.27;;
59424;SDS011;45231;44.826;20.312;2023-03-03T07:16:17;37.78;;;25.60;;
59424;SDS011;45231;44.826;20.312;2023-03-03T07:18:59;38.13;;;26.30;;
59424;SDS011;45231;44.826;20.312;2023-03-03T07:21:42;33.17;;;23.05;;
59424;SDS011;45231;44.826;20.312;2023-03-03T07:26:44;35.65;;;22.50;;
59424;SDS011;45231;44.826;20.312;2023-03-03T07:29:21;33.92;;;22.77;;
59424;SDS011;45231;44.826;20.312;2023-03-03T07:31:49;35.97;;;24.58;;
59424;SDS011;45231;44.826;20.312;2023-03-03T07:36:42;33.07;;;22.63;;
59424;SDS011;45231;44.826;20.312;2023-03-03T07:39:24;31.70;;;21.77;;
59424;SDS011;45231;44.826;20.312;2023-03-03T07:41:50;31.15;;;22.98;;
59424;SDS011;45231;44.826;20.312;2023-03-03T07:44:29;34.60;;;22.25;;
59424;SDS011;45231;44.826;20.312;2023-03-03T07:46:56;32.53;;;21.92;;
59424;SDS011;45231;44.826;20.312;2023-03-03T07:51:52;32.65;;;22.00;;
59424;SDS011;45231;44.826;20.312;2023-03-03T07:56:52;28.95;;;19.30;;
59424;SDS011;45231;44.826;20.312;2023-03-03T07:59:20;28.23;;;18.48;;
59424;SDS011;45231;44.826;20.312;2023-03-03T08:01:49;25.40;;;16.42;;
59424;SDS011;45231;44.826;20.312;2023-03-03T08:06:51;23.85;;;15.98;;
59424;SDS011;45231;44.826;20.312;2023-03-03T08:11:50;27.73;;;19.47;;
59424;SDS011;45231;44.826;20.312;2023-03-03T08:14:20;29.73;;;20.45;;
59424;SDS011;45231;44.826;20.312;2023-03-03T08:16:58;26.05;;;19.73;;
59424;SDS011;45231;44.826;20.312;2023-03-03T08:21:55;29.77;;;19.38;;
59424;SDS011;45231;44.826;20.312;2023-03-03T08:24:24;26.15;;;18.75;;
59424;SDS011;45231;44.826;20.312;2023-03-03T08:26:50;27.13;;;18.73;;
59424;SDS011;45231;44.826;20.312;2023-03-03T08:29:16;26.98;;;18.95;;
59424;SDS011;45231;44.826;20.312;2023-03-03T08:31:46;28.40;;;18.50;;
59424;SDS011;45231;44.826;20.312;2023-03-03T08:34:12;26.48;;;19.08;;
59424;SDS011;45231;44.826;20.312;2023-03-03T08:36:38;25.40;;;18.87;;
59424;SDS011;45231;44.826;20.312;2023-03-03T08:39:04;28.40;;;19.10;;
59424;SDS011;45231;44.826;20.312;2023-03-03T08:41:30;27.85;;;19.80;;
59424;SDS011;45231;44.826;20.312;2023-03-03T08:43:56;29.85;;;20.00;;
59424;SDS011;45231;44.826;20.312;2023-03-03T08:46:23;27.85;;;19.17;;
59424;SDS011;45231;44.826;20.312;2023-03-03T08:48:49;28.63;;;19.95;;
59424;SDS011;45231;44.826;20.312;2023-03-03T08:51:15;34.33;;;19.80;;
59424;SDS011;45231;44.826;20.312;2023-03-03T08:53:41;26.27;;;18.53;;
59424;SDS011;45231;44.826;20.312;2023-03-03T08:56:07;26.00;;;19.50;;
59424;SDS011;45231;44.826;20.312;2023-03-03T08:58:34;27.95;;;20.67;;
59424;SDS011;45231;44.826;20.312;2023-03-03T09:01:02;27.63;;;19.30;;
59424;SDS011;45231;44.826;20.312;2023-03-03T09:03:29;26.80;;;18.92;;
59424;SDS011;45231;44.826;20.312;2023-03-03T09:08:21;26.17;;;18.13;;
59424;SDS011;45231;44.826;20.312;2023-03-03T09:10:47;27.37;;;19.17;;
59424;SDS011;45231;44.826;20.312;2023-03-03T09:13:14;27.35;;;19.65;;
59424;SDS011;45231;44.826;20.312;2023-03-03T09:15:43;28.27;;;20.20;;
59424;SDS011;45231;44.826;20.312;2023-03-03T09:18:12;29.02;;;20.52;;
59424;SDS011;45231;44.826;20.312;2023-03-03T09:20:40;31.33;;;20.50;;
59424;SDS011;45231;44.826;20.312;2023-03-03T09:25:51;31.63;;;21.55;;
59424;SDS011;45231;44.826;20.312;2023-03-03T09:28:24;27.13;;;21.00;;
59424;SDS011;45231;44.826;20.312;2023-03-03T09:30:52;31.95;;;20.80;;
59424;SDS011;45231;44.826;20.312;2023-03-03T09:33:23;28.85;;;19.98;;
59424;SDS011;45231;44.826;20.312;2023-03-03T09:35:51;31.02;;;20.55;;
59424;SDS011;45231;44.826;20.312;2023-03-03T09:38:27;30.88;;;20.52;;
59424;SDS011;45231;44.826;20.312;2023-03-03T09:43:23;31.63;;;19.53;;
59424;SDS011;45231;44.826;20.312;2023-03-03T09:46:00;29.08;;;21.08;;
59424;SDS011;45231;44.826;20.312;2023-03-03T09:48:49;32.03;;;21.35;;
59424;SDS011;45231;44.826;20.312;2023-03-03T09:51:53;33.15;;;22.77;;
59424;SDS011;45231;44.826;20.312;2023-03-03T09:56:40;30.98;;;21.33;;
59424;SDS011;45231;44.826;20.312;2023-03-03T10:01:47;33.88;;;23.58;;
59424;SDS011;45231;44.826;20.312;2023-03-03T10:04:28;32.85;;;21.73;;
59424;SDS011;45231;44.826;20.312;2023-03-03T10:12:32;27.70;;;21.05;;
59424;SDS011;45231;44.826;20.312;2023-03-03T10:22:52;28.48;;;20.67;;
59424;SDS011;45231;44.826;20.312;2023-03-03T10:25:39;32.05;;;22.33;;
59424;SDS011;45231;44.826;20.312;2023-03-03T11:02:02;30.17;;;22.15;;
59424;SDS011;45231;44.826;20.312;2023-03-03T11:07:15;32.40;;;23.55;;
59424;SDS011;45231;44.826;20.312;2023-03-03T11:09:57;28.88;;;21.88;;
59424;SDS011;45231;44.826;20.312;2023-03-03T11:25:26;31.50;;;21.77;;
59424;SDS011;45231;44.826;20.312;2023-03-03T11:40:46;33.97;;;22.43;;
59424;SDS011;45231;44.826;20.312;2023-03-03T11:43:26;30.17;;;21.25;;
59424;SDS011;45231;44.826;20.312;2023-03-03T11:45:59;28.75;;;20.02;;
59424;SDS011;45231;44.826;20.312;2023-03-03T11:50:58;29.88;;;20.70;;
59424;SDS011;45231;44.826;20.312;2023-03-03T11:53:28;30.20;;;20.95;;
59424;SDS011;45231;44.826;20.312;2023-03-03T11:55:59;28.90;;;20.52;;
59424;SDS011;45231;44.826;20.312;2023-03-03T11:58:34;32.13;;;21.17;;
59424;SDS011;45231;44.826;20.312;2023-03-03T12:06:01;32.92;;;21.60;;
59424;SDS011;45231;44.826;20.312;2023-03-03T12:08:37;30.52;;;20.42;;
59424;SDS011;45231;44.826;20.312;2023-03-03T12:13:46;30.43;;;21.47;;
59424;SDS011;45231;44.826;20.312;2023-03-03T12:34:50;29.15;;;20.50;;
59424;SDS011;45231;44.826;20.312;2023-03-03T12:42:35;34.10;;;21.55;;
59424;SDS011;45231;44.826;20.312;2023-03-03T12:47:49;29.60;;;20.98;;
59424;SDS011;45231;44.826;20.312;2023-03-03T12:55:35;36.70;;;22.42;;
59424;SDS011;45231;44.826;20.312;2023-03-03T13:16:13;39.63;;;28.80;;
59424;SDS011;45231;44.826;20.312;2023-03-03T13:18:47;38.13;;;26.83;;
59424;SDS011;45231;44.826;20.312;2023-03-03T13:26:20;40.97;;;27.52;;
59424;SDS011;45231;44.826;20.312;2023-03-03T13:28:53;42.22;;;28.40;;
59424;SDS011;45231;44.826;20.312;2023-03-03T13:31:21;40.97;;;28.80;;
59424;SDS011;45231;44.826;20.312;2023-03-03T13:33:55;44.53;;;28.42;;
59424;SDS011;45231;44.826;20.312;2023-03-03T13:36:27;37.28;;;26.38;;
59424;SDS011;45231;44.826;20.312;2023-03-03T13:38:59;41.67;;;25.60;;
59424;SDS011;45231;44.826;20.312;2023-03-03T13:44:10;38.28;;;26.83;;
59424;SDS011;45231;44.826;20.312;2023-03-03T13:46:42;42.58;;;27.10;;
59424;SDS011;45231;44.826;20.312;2023-03-03T13:49:16;39.72;;;26.75;;
59424;SDS011;45231;44.826;20.312;2023-03-03T14:05:08;39.53;;;25.40;;
59424;SDS011;45231;44.826;20.312;2023-03-03T14:13:02;38.72;;;27.13;;
59424;SDS011;45231;44.826;20.312;2023-03-03T14:15:10;36.90;;;25.70;;
59424;SDS011;45231;44.826;20.312;2023-03-03T14:17:55;37.38;;;25.15;;
59424;SDS011;45231;44.826;20.312;2023-03-03T14:20:27;35.58;;;24.73;;
59424;SDS011;45231;44.826;20.312;2023-03-03T14:22:54;34.85;;;24.60;;
59424;SDS011;45231;44.826;20.312;2023-03-03T14:25:21;37.45;;;25.50;;
59424;SDS011;45231;44.826;20.312;2023-03-03T14:30:27;44.83;;;29.00;;
59424;SDS011;45231;44.826;20.312;2023-03-03T14:35:36;48.08;;;29.55;;
59424;SDS011;45231;44.826;20.312;2023-03-03T14:38:12;45.58;;;29.83;;
59424;SDS011;45231;44.826;20.312;2023-03-03T14:40:39;42.22;;;29.02;;
59424;SDS011;45231;44.826;20.312;2023-03-03T14:45:49;45.50;;;29.00;;
59424;SDS011;45231;44.826;20.312;2023-03-03T14:48:17;46.92;;;29.48;;
59424;SDS011;45231;44.826;20.312;2023-03-03T14:53:44;49.10;;;31.45;;
59424;SDS011;45231;44.826;20.312;2023-03-03T14:56:16;54.10;;;31.80;;
59424;SDS011;45231;44.826;20.312;2023-03-03T14:58:47;61.30;;;35.92;;
59424;SDS011;45231;44.826;20.312;2023-03-03T15:01:20;53.45;;;32.97;;
59424;SDS011;45231;44.826;20.312;2023-03-03T15:03:48;58.03;;;36.30;;
59424;SDS011;45231;44.826;20.312;2023-03-03T15:06:33;57.35;;;35.38;;
59424;SDS011;45231;44.826;20.312;2023-03-03T15:11:43;63.60;;;38.85;;
59424;SDS011;45231;44.826;20.312;2023-03-03T15:14:13;72.03;;;41.43;;
59424;SDS011;45231;44.826;20.312;2023-03-03T15:16:40;66.88;;;40.50;;
59424;SDS011;45231;44.826;20.312;2023-03-03T15:22:17;70.15;;;41.15;;
59424;SDS011;45231;44.826;20.312;2023-03-03T15:24:44;69.30;;;40.13;;
59424;SDS011;45231;44.826;20.312;2023-03-03T15:27:27;71.65;;;41.58;;
59424;SDS011;45231;44.826;20.312;2023-03-03T15:29:58;75.72;;;43.35;;
59424;SDS011;45231;44.826;20.312;2023-03-03T15:34:56;80.60;;;44.73;;
59424;SDS011;45231;44.826;20.312;2023-03-03T15:42:33;77.90;;;42.90;;
59424;SDS011;45231;44.826;20.312;2023-03-03T15:45:10;81.82;;;43.50;;
59424;SDS011;45231;44.826;20.312;2023-03-03T15:52:47;89.23;;;45.43;;
59424;SDS011;45231;44.826;20.312;2023-03-03T16:02:54;93.28;;;46.33;;
59424;SDS011;45231;44.826;20.312;2023-03-03T16:05:25;90.13;;;46.90;;
59424;SDS011;45231;44.826;20.312;2023-03-03T16:08:03;98.80;;;49.50;;
59424;SDS011;45231;44.826;20.312;2023-03-03T16:10:44;96.63;;;48.05;;
59424;SDS011;45231;44.826;20.312;2023-03-03T16:23:51;102.40;;;53.27;;
59424;SDS011;45231;44.826;20.312;2023-03-03T16:31:18;108.93;;;53.40;;
59424;SDS011;45231;44.826;20.312;2023-03-03T16:36:31;107.97;;;52.40;;
59424;SDS011;45231;44.826;20.312;2023-03-03T16:39:24;113.88;;;54.38;;
59424;SDS011;45231;44.826;20.312;2023-03-03T16:47:20;118.85;;;55.33;;
59424;SDS011;45231;44.826;20.312;2023-03-03T16:52:49;116.50;;;56.55;;
59424;SDS011;45231;44.826;20.312;2023-03-03T16:55:26;108.30;;;53.97;;
59424;SDS011;45231;44.826;20.312;2023-03-03T16:58:02;115.88;;;56.58;;
59424;SDS011;45231;44.826;20.312;2023-03-03T17:00:43;122.07;;;55.22;;
59424;SDS011;45231;44.826;20.312;2023-03-03T17:03:17;114.88;;;53.35;;
59424;SDS011;45231;44.826;20.312;2023-03-03T17:05:53;109.85;;;54.38;;
59424;SDS011;45231;44.826;20.312;2023-03-03T17:08:25;119.70;;;56.15;;
59424;SDS011;45231;44.826;20.312;2023-03-03T17:16:34;123.88;;;56.08;;
59424;SDS011;45231;44.826;20.312;2023-03-03T17:21:38;114.43;;;56.08;;
59424;SDS011;45231;44.826;20.312;2023-03-03T17:24:23;115.88;;;55.83;;
59424;SDS011;45231;44.826;20.312;2023-03-03T17:39:55;109.38;;;52.20;;
59424;SDS011;45231;44.826;20.312;2023-03-03T17:42:45;112.38;;;53.13;;
59424;SDS011;45231;44.826;20.312;2023-03-03T17:45:13;101.70;;;50.38;;
59424;SDS011;45231;44.826;20.312;2023-03-03T17:50:36;107.07;;;50.83;;
59424;SDS011;45231;44.826;20.312;2023-03-03T18:11:25;103.57;;;48.63;;
59424;SDS011;45231;44.826;20.312;2023-03-03T18:13:59;99.40;;;49.55;;
59424;SDS011;45231;44.826;20.312;2023-03-03T18:27:00;93.73;;;46.73;;
59424;SDS011;45231;44.826;20.312;2023-03-03T18:29:37;95.78;;;45.75;;
59424;SDS011;45231;44.826;20.312;2023-03-03T18:32:12;100.35;;;46.67;;
59424;SDS011;45231;44.826;20.312;2023-03-03T18:34:42;106.95;;;48.47;;
59424;SDS011;45231;44.826;20.312;2023-03-03T18:37:09;101.73;;;46.20;;
59424;SDS011;45231;44.826;20.312;2023-03-03T18:39:49;92.63;;;47.00;;
59424;SDS011;45231;44.826;20.312;2023-03-03T18:42:41;100.82;;;46.40;;
59424;SDS011;45231;44.826;20.312;2023-03-03T18:50:45;87.78;;;44.67;;
59424;SDS011;45231;44.826;20.312;2023-03-03T18:55:50;95.38;;;44.28;;
59424;SDS011;45231;44.826;20.312;2023-03-03T19:03:18;102.60;;;46.73;;
59424;SDS011;45231;44.826;20.312;2023-03-03T19:05:54;85.45;;;42.50;;
59424;SDS011;45231;44.826;20.312;2023-03-03T19:08:25;93.00;;;44.13;;
59424;SDS011;45231;44.826;20.312;2023-03-03T19:11:01;86.82;;;42.78;;
59424;SDS011;45231;44.826;20.312;2023-03-03T19:15:58;96.13;;;42.05;;
59424;SDS011;45231;44.826;20.312;2023-03-03T19:18:34;105.95;;;44.83;;
59424;SDS011;45231;44.826;20.312;2023-03-03T19:21:06;93.90;;;42.08;;
59424;SDS011;45231;44.826;20.312;2023-03-03T19:24:04;91.55;;;41.10;;
59424;SDS011;45231;44.826;20.312;2023-03-03T19:26:54;96.10;;;42.92;;
59424;SDS011;45231;44.826;20.312;2023-03-03T19:48:05;104.60;;;44.05;;
59424;SDS011;45231;44.826;20.312;2023-03-03T19:50:33;98.32;;;43.40;;
59424;SDS011;45231;44.826;20.312;2023-03-03T19:55:42;95.07;;;40.73;;
59424;SDS011;45231;44.826;20.312;2023-03-03T20:00:43;100.40;;;45.05;;
59424;SDS011;45231;44.826;20.312;2023-03-03T20:05:44;98.43;;;42.05;;
59424;SDS011;45231;44.826;20.312;2023-03-03T20:10:40;107.22;;;44.05;;
59424;SDS011;45231;44.826;20.312;2023-03-03T20:13:11;103.22;;;43.17;;
59424;SDS011;45231;44.826;20.312;2023-03-03T20:15:51;103.88;;;42.58;;
59424;SDS011;45231;44.826;20.312;2023-03-03T20:34:04;108.40;;;42.25;;
59424;SDS011;45231;44.826;20.312;2023-03-03T20:39:27;120.30;;;44.60;;
59424;SDS011;45231;44.826;20.312;2023-03-03T20:57:44;133.80;;;45.58;;
59424;SDS011;45231;44.826;20.312;2023-03-03T21:00:28;147.43;;;48.50;;
59424;SDS011;45231;44.826;20.312;2023-03-03T21:05:24;144.90;;;47.28;;
59424;SDS011;45231;44.826;20.312;2023-03-03T21:07:55;147.35;;;45.90;;
59424;SDS011;45231;44.826;20.312;2023-03-03T21:10:40;162.07;;;47.50;;
59424;SDS011;45231;44.826;20.312;2023-03-03T21:13:26;150.25;;;46.00;;
59424;SDS011;45231;44.826;20.312;2023-03-03T21:15:54;161.68;;;44.97;;
59424;SDS011;45231;44.826;20.312;2023-03-03T21:18:21;156.70;;;47.28;;
59424;SDS011;45231;44.826;20.312;2023-03-03T21:20:50;146.13;;;43.90;;
59424;SDS011;45231;44.826;20.312;2023-03-03T21:23:17;148.55;;;44.58;;
59424;SDS011;45231;44.826;20.312;2023-03-03T21:25:49;141.75;;;42.65;;
59424;SDS011;45231;44.826;20.312;2023-03-03T21:30:59;141.43;;;43.73;;
59424;SDS011;45231;44.826;20.312;2023-03-03T21:36:21;139.63;;;42.10;;